Terminal Aerodrome Forecast
Issued by NWS

Home | Current Version | Previous Version | Text Only | Print | Product List | Glossary On
Versions: 1 2 3 4 5 6 7 8 9 10 11 12 13 14 15 16
314
FTUS43 KDVN 292057 AAA
TAFBRL
TAF AMD
KBRL 292057Z 2921/3018 28006KT P6SM BKN035
     FM301000 36003KT 2SM BR BKN005
     FM301500 36005KT 6SM HZ SCT009 BKN020=

USA.gov is the U.S. government's official web portal to all federal, state and local government web resources and services.